createdAt,value
2022-10-11T00:01:32.863Z,12.00
2022-10-11T00:04:36.054Z,12.00
2022-10-11T00:07:40.740Z,11.90
2022-10-11T00:10:44.012Z,12.00
2022-10-11T00:13:47.517Z,11.90
2022-10-11T00:16:50.825Z,11.90
2022-10-11T00:19:53.910Z,11.90
2022-10-11T00:22:58.436Z,11.90
2022-10-11T00:26:04.969Z,11.90
2022-10-11T00:29:08.823Z,11.80
2022-10-11T00:32:12.235Z,11.80
2022-10-11T00:35:15.240Z,11.80
2022-10-11T00:38:19.896Z,11.80
2022-10-11T00:41:23.897Z,11.80
2022-10-11T00:44:30.670Z,11.80
2022-10-11T00:47:33.820Z,11.70
2022-10-11T00:50:38.251Z,11.70
2022-10-11T00:53:44.246Z,11.70
2022-10-11T00:56:54.172Z,11.70
2022-10-11T00:59:58.270Z,11.60
2022-10-11T01:03:03.538Z,11.70
2022-10-11T01:06:07.800Z,11.60
2022-10-11T01:09:14.605Z,11.60
2022-10-11T01:12:24.561Z,11.60
2022-10-11T01:15:39.992Z,11.60
2022-10-11T01:18:53.072Z,11.60
2022-10-11T01:22:13.925Z,11.50
2022-10-11T01:25:30.889Z,11.50
2022-10-11T01:28:49.656Z,12.30
2022-10-11T01:32:03.307Z,11.50
2022-10-11T01:35:17.498Z,11.40
2022-10-11T01:38:32.571Z,11.50
2022-10-11T01:41:41.256Z,11.50
2022-10-11T01:44:50.081Z,11.40
2022-10-11T01:48:07.560Z,11.50
2022-10-11T01:51:11.094Z,11.50
2022-10-11T01:58:33.138Z,11.40
2022-10-11T02:01:52.143Z,11.40
2022-10-11T02:05:07.185Z,11.40
2022-10-11T02:08:23.341Z,10.40
2022-10-11T02:11:31.018Z,11.30
2022-10-11T02:14:40.302Z,11.60
2022-10-11T02:17:50.999Z,11.20
2022-10-11T02:20:58.353Z,11.20
2022-10-11T02:24:09.189Z,11.20
2022-10-11T02:27:13.491Z,11.20
2022-10-11T02:30:18.350Z,11.10
2022-10-11T02:33:27.863Z,11.60
2022-10-11T02:36:45.304Z,11.10
2022-10-11T02:39:55.351Z,11.10
2022-10-11T02:43:05.299Z,11.00
2022-10-11T02:46:11.309Z,11.10
2022-10-11T02:49:15.930Z,11.00
2022-10-11T02:52:21.125Z,11.00
2022-10-11T02:55:25.387Z,10.90
2022-10-11T02:58:28.410Z,11.00
2022-10-11T03:01:31.612Z,11.00
2022-10-11T03:04:34.934Z,11.00
2022-10-11T03:07:39.323Z,10.90
2022-10-11T03:10:43.086Z,10.90
2022-10-11T03:13:46.335Z,10.90
2022-10-11T03:16:51.545Z,11.60
2022-10-11T03:19:55.003Z,10.90
2022-10-11T03:22:59.413Z,10.90
2022-10-11T03:26:02.977Z,10.60
2022-10-11T03:29:06.324Z,10.90
2022-10-11T03:32:09.348Z,10.80
2022-10-11T03:35:12.486Z,10.40
2022-10-11T03:38:20.800Z,10.80
2022-10-11T03:41:24.158Z,10.80
2022-10-11T03:44:28.893Z,10.80
2022-10-11T03:47:32.781Z,10.80
2022-10-11T03:50:36.561Z,10.80
2022-10-11T03:53:41.613Z,10.80
2022-10-11T03:56:44.764Z,11.20
2022-10-11T03:59:48.086Z,10.80
2022-10-11T04:02:51.191Z,10.70
2022-10-11T04:05:54.401Z,10.70
2022-10-11T04:08:58.929Z,10.70
2022-10-11T04:12:02.586Z,10.70
2022-10-11T04:15:08.919Z,10.70
2022-10-11T04:18:12.278Z,10.70
2022-10-11T04:21:15.467Z,10.60
2022-10-11T04:24:19.875Z,10.70
2022-10-11T04:27:23.217Z,10.70
2022-10-11T04:30:29.160Z,10.70
2022-10-11T04:33:32.717Z,10.70
2022-10-11T04:36:38.962Z,10.60
2022-10-11T04:39:43.463Z,10.60
2022-10-11T04:42:46.475Z,10.60
2022-10-11T04:45:54.628Z,10.60
2022-10-11T04:48:59.588Z,10.60
2022-10-11T04:52:02.765Z,10.60
2022-10-11T04:55:08.433Z,10.60
2022-10-11T04:58:11.523Z,11.60
2022-10-11T05:01:15.181Z,10.60
2022-10-11T05:04:18.762Z,10.60
2022-10-11T05:07:21.865Z,10.60
2022-10-11T05:10:26.353Z,11.40
2022-10-11T05:13:30.574Z,10.50
2022-10-11T05:16:33.547Z,10.50
2022-10-11T05:19:36.541Z,10.70
2022-10-11T05:22:39.747Z,10.50
2022-10-11T05:25:44.515Z,10.50
2022-10-11T05:28:48.481Z,10.50
2022-10-11T05:31:51.607Z,10.40
2022-10-11T05:34:54.681Z,10.50
2022-10-11T05:37:57.794Z,10.40
2022-10-11T05:41:03.865Z,10.30
2022-10-11T05:44:09.796Z,10.40
2022-10-11T05:47:13.438Z,10.40
2022-10-11T05:50:20.790Z,10.40
2022-10-11T05:53:27.541Z,10.40
2022-10-11T05:56:32.212Z,9.60
2022-10-11T05:59:37.623Z,10.40
2022-10-11T06:02:41.461Z,10.50
2022-10-11T06:05:45.570Z,10.50
2022-10-11T06:08:48.945Z,11.50
2022-10-11T06:11:53.980Z,10.60
2022-10-11T06:14:57.117Z,10.70
2022-10-11T06:18:00.601Z,10.70
2022-10-11T06:21:04.154Z,11.10
2022-10-11T06:24:09.349Z,10.80
2022-10-11T06:27:14.223Z,10.90
2022-10-11T06:30:18.211Z,11.10
2022-10-11T06:33:22.572Z,10.80
2022-10-11T06:36:28.800Z,11.10
2022-10-11T06:39:31.926Z,11.20
2022-10-11T06:42:37.179Z,11.20
2022-10-11T06:45:41.665Z,11.30
2022-10-11T06:48:47.397Z,11.40
2022-10-11T06:51:50.872Z,11.50
2022-10-11T06:54:54.692Z,11.60
2022-10-11T06:57:59.506Z,11.80
2022-10-11T07:01:04.714Z,11.90
2022-10-11T07:04:08.431Z,12.10
2022-10-11T07:07:14.766Z,12.40
2022-10-11T07:10:18.234Z,12.60
2022-10-11T07:13:42.591Z,12.70
2022-10-11T07:16:47.914Z,12.80
2022-10-11T07:19:51.084Z,12.90
2022-10-11T07:22:54.341Z,12.90
2022-10-11T07:25:57.441Z,13.00
2022-10-11T07:29:02.315Z,13.00
2022-10-11T07:32:05.872Z,13.10
2022-10-11T07:35:09.423Z,13.20
2022-10-11T07:38:13.406Z,13.30
2022-10-11T07:41:16.629Z,13.40
2022-10-11T07:44:21.158Z,13.50
2022-10-11T07:47:25.939Z,13.60
2022-10-11T07:50:31.887Z,13.70
2022-10-11T07:53:40.802Z,13.80
2022-10-11T07:56:43.873Z,13.90
2022-10-11T07:59:50.343Z,14.00
2022-10-11T08:02:53.810Z,14.40
2022-10-11T08:06:02.631Z,14.20
2022-10-11T08:09:06.855Z,14.60
2022-10-11T08:12:11.707Z,14.40
2022-10-11T08:15:17.405Z,14.50
2022-10-11T08:18:22.252Z,14.60
2022-10-11T08:21:27.700Z,14.60
2022-10-11T08:24:37.342Z,14.70
2022-10-11T08:27:42.085Z,14.80
2022-10-11T08:30:55.815Z,14.80
2022-10-11T08:33:59.225Z,14.80
2022-10-11T08:37:02.362Z,15.10
2022-10-11T08:40:07.633Z,15.00
2022-10-11T08:43:26.564Z,15.10
2022-10-11T08:46:37.911Z,15.10
2022-10-11T08:49:42.362Z,15.20
2022-10-11T08:52:51.760Z,15.40
2022-10-11T08:55:56.185Z,15.30
2022-10-11T08:59:07.757Z,15.40
2022-10-11T09:02:38.918Z,15.40
2022-10-11T09:06:07.272Z,15.50
2022-10-11T09:09:46.969Z,15.60
2022-10-11T09:13:05.356Z,15.70
2022-10-11T09:16:23.279Z,15.80
2022-10-11T09:20:05.603Z,16.00
2022-10-11T09:23:24.448Z,16.10
2022-10-11T09:26:34.003Z,16.20
2022-10-11T09:29:56.854Z,16.30
2022-10-11T09:33:12.448Z,16.10
2022-10-11T09:36:26.590Z,16.40
2022-10-11T09:39:34.381Z,16.40
2022-10-11T09:42:37.548Z,16.50
2022-10-11T09:45:49.143Z,16.60
2022-10-11T09:48:56.220Z,16.60
2022-10-11T09:52:05.141Z,16.70
2022-10-11T09:55:09.382Z,16.80
2022-10-11T09:58:27.700Z,16.80
2022-10-11T10:01:33.463Z,17.00
2022-10-11T10:04:36.725Z,17.00
2022-10-11T10:08:04.288Z,17.00
2022-10-11T10:11:10.594Z,17.00
2022-10-11T10:14:22.550Z,17.00
2022-10-11T10:17:25.701Z,17.00
2022-10-11T10:20:33.086Z,16.90
2022-10-11T10:23:38.808Z,17.00
2022-10-11T10:26:41.948Z,17.00
2022-10-11T10:30:02.784Z,16.90
2022-10-11T10:33:11.997Z,17.30
2022-10-11T10:36:22.939Z,17.30
2022-10-11T10:39:37.916Z,17.30
2022-10-11T10:42:41.236Z,17.30
2022-10-11T10:46:30.815Z,17.10
2022-10-11T10:49:59.595Z,17.10
2022-10-11T10:53:20.896Z,17.10
2022-10-11T10:56:34.365Z,17.10
2022-10-11T11:00:02.257Z,17.80
2022-10-11T11:03:10.986Z,17.30
2022-10-11T11:06:26.515Z,17.40
2022-10-11T11:09:46.608Z,17.40
2022-10-11T11:13:07.602Z,17.40
2022-10-11T11:16:21.258Z,17.40
2022-10-11T11:19:46.947Z,17.40
2022-10-11T11:23:01.104Z,17.30
2022-10-11T11:26:14.000Z,17.50
2022-10-11T11:29:39.576Z,17.20
2022-10-11T11:32:59.411Z,17.10
2022-10-11T11:36:12.142Z,17.10
2022-10-11T11:39:21.669Z,17.10
2022-10-11T11:42:32.558Z,17.10
2022-10-11T11:45:48.636Z,17.20
2022-10-11T11:48:57.439Z,16.70
2022-10-11T11:52:01.515Z,17.20
2022-10-11T11:55:12.581Z,17.20
2022-10-11T11:58:36.340Z,17.20
2022-10-11T12:01:52.784Z,17.20
2022-10-11T12:04:57.528Z,17.20
2022-10-11T12:08:05.997Z,17.20
2022-10-11T12:11:22.886Z,17.20
2022-10-11T12:14:38.717Z,17.20
2022-10-11T12:18:06.327Z,17.20
2022-10-11T12:21:31.883Z,17.20
2022-10-11T12:24:57.230Z,17.30
2022-10-11T12:28:03.346Z,17.20
2022-10-11T12:31:21.183Z,17.30
2022-10-11T12:34:38.666Z,17.30
2022-10-11T12:37:54.398Z,17.30
2022-10-11T12:41:01.471Z,17.30
2022-10-11T12:44:23.286Z,17.30
2022-10-11T12:47:42.882Z,17.40
2022-10-11T12:51:10.990Z,17.40
2022-10-11T12:54:55.325Z,17.50
2022-10-11T12:58:30.426Z,17.60
2022-10-11T13:01:38.145Z,17.70
2022-10-11T13:04:41.897Z,17.80
2022-10-11T13:07:47.084Z,17.80
2022-10-11T13:10:50.625Z,17.90
2022-10-11T13:14:01.174Z,17.90
2022-10-11T13:17:17.580Z,17.80
2022-10-11T13:20:26.628Z,17.90
2022-10-11T13:23:39.643Z,17.80
2022-10-11T13:26:45.116Z,17.80
2022-10-11T13:29:50.826Z,17.80
2022-10-11T13:32:55.062Z,17.80
2022-10-11T13:35:58.499Z,17.80
2022-10-11T13:39:04.503Z,17.70
2022-10-11T13:42:13.940Z,17.60
2022-10-11T13:45:22.212Z,17.50
2022-10-11T13:48:30.750Z,17.40
2022-10-11T13:51:37.981Z,17.30
2022-10-11T13:55:11.422Z,17.20
2022-10-11T13:58:26.638Z,16.90
2022-10-11T14:01:41.691Z,17.00
2022-10-11T14:04:45.151Z,16.90
2022-10-11T14:07:49.440Z,16.80
2022-10-11T14:10:57.786Z,16.70
2022-10-11T14:14:31.071Z,16.70
2022-10-11T14:17:42.738Z,16.70
2022-10-11T14:20:46.140Z,16.70
2022-10-11T14:23:53.153Z,16.70
2022-10-11T14:26:57.659Z,16.70
2022-10-11T14:33:27.111Z,16.60
2022-10-11T14:36:31.101Z,16.60
2022-10-11T14:39:34.540Z,16.60
2022-10-11T14:42:37.733Z,17.10
2022-10-11T14:45:42.228Z,16.60
2022-10-11T14:49:00.686Z,16.50
2022-10-11T14:52:06.540Z,16.50
2022-10-11T14:55:09.760Z,16.40
2022-10-11T14:58:16.201Z,16.40
2022-10-11T15:01:21.714Z,16.40
2022-10-11T15:04:28.121Z,16.30
2022-10-11T15:07:31.332Z,16.20
2022-10-11T15:10:38.512Z,16.20
2022-10-11T15:13:42.348Z,16.20
2022-10-11T15:16:47.444Z,16.10
2022-10-11T15:19:50.938Z,16.10
2022-10-11T15:22:55.446Z,16.00
2022-10-11T15:25:58.593Z,15.90
2022-10-11T15:29:02.209Z,15.90
2022-10-11T15:32:07.742Z,15.80
2022-10-11T15:35:11.398Z,15.70
2022-10-11T15:38:19.287Z,15.70
2022-10-11T15:41:23.960Z,15.80
2022-10-11T15:44:27.457Z,15.60
2022-10-11T15:47:31.955Z,15.60
2022-10-11T15:50:37.712Z,15.60
2022-10-11T15:53:40.932Z,15.60
2022-10-11T15:56:44.369Z,15.60
2022-10-11T15:59:47.495Z,15.70
2022-10-11T16:02:54.195Z,15.70
2022-10-11T16:06:03.885Z,15.70
2022-10-11T16:09:08.428Z,16.40
2022-10-11T16:12:11.608Z,15.70
2022-10-11T16:15:16.460Z,15.70
2022-10-11T16:18:22.268Z,15.70
2022-10-11T16:21:25.944Z,15.70
2022-10-11T16:24:29.183Z,15.70
2022-10-11T16:27:33.000Z,15.70
2022-10-11T16:30:38.961Z,15.70
2022-10-11T16:33:46.582Z,16.00
2022-10-11T16:36:49.697Z,15.60
2022-10-11T16:39:52.717Z,15.60
2022-10-11T16:42:55.834Z,15.70
2022-10-11T16:45:59.991Z,15.70
2022-10-11T16:49:05.701Z,15.70
2022-10-11T16:52:10.794Z,15.70
2022-10-11T16:55:13.891Z,15.70
2022-10-11T16:58:17.488Z,15.60
2022-10-11T17:01:20.665Z,15.60
2022-10-11T17:04:28.349Z,15.60
2022-10-11T17:07:33.248Z,15.30
2022-10-11T17:10:40.310Z,15.70
2022-10-11T17:13:44.259Z,15.60
2022-10-11T17:16:47.620Z,15.60
2022-10-11T17:19:52.194Z,15.50
2022-10-11T17:22:55.567Z,15.60
2022-10-11T17:25:59.190Z,15.60
2022-10-11T17:29:03.253Z,15.60
2022-10-11T17:32:07.326Z,15.50
2022-10-11T17:35:12.054Z,15.50
2022-10-11T17:38:15.271Z,15.50
2022-10-11T17:41:19.627Z,15.50
2022-10-11T17:44:22.927Z,15.50
2022-10-11T17:47:26.674Z,15.40
2022-10-11T17:50:32.308Z,15.40
2022-10-11T17:53:35.613Z,16.20
2022-10-11T17:56:40.588Z,15.40
2022-10-11T17:59:43.784Z,15.30
2022-10-11T18:02:49.155Z,15.30
2022-10-11T18:05:55.462Z,15.40
2022-10-11T18:09:02.756Z,15.30
2022-10-11T18:12:06.303Z,15.30
2022-10-11T18:15:10.823Z,15.70
2022-10-11T18:18:15.540Z,15.20
2022-10-11T18:21:20.407Z,15.20
2022-10-11T18:24:23.581Z,15.20
2022-10-11T18:27:26.694Z,15.20
2022-10-11T18:30:29.815Z,15.10
2022-10-11T18:33:33.013Z,15.10
2022-10-11T18:36:39.022Z,15.00
2022-10-11T18:39:42.045Z,15.00
2022-10-11T18:42:45.089Z,14.90
2022-10-11T18:45:48.213Z,14.90
2022-10-11T18:48:54.572Z,14.90
2022-10-11T18:51:59.082Z,14.80
2022-10-11T18:55:04.764Z,14.70
2022-10-11T18:58:07.866Z,14.70
2022-10-11T19:01:16.533Z,15.00
2022-10-11T19:04:20.497Z,14.60
2022-10-11T19:07:25.250Z,14.50
2022-10-11T19:10:28.407Z,14.40
2022-10-11T19:13:31.657Z,14.30
2022-10-11T19:16:39.141Z,14.30
2022-10-11T19:19:51.862Z,14.20
2022-10-11T19:22:56.540Z,14.10
2022-10-11T19:25:59.932Z,14.00
2022-10-11T19:29:06.528Z,13.90
2022-10-11T19:32:09.732Z,13.80
2022-10-11T19:35:17.662Z,13.70
2022-10-11T19:38:24.925Z,13.70
2022-10-11T19:41:29.180Z,13.50
2022-10-11T19:44:35.749Z,13.50
2022-10-11T19:47:43.401Z,13.50
2022-10-11T19:50:46.551Z,13.40
2022-10-11T19:53:57.575Z,13.30
2022-10-11T19:57:00.800Z,13.20
2022-10-11T20:00:05.841Z,12.80
2022-10-11T20:03:09.270Z,13.10
2022-10-11T20:06:13.280Z,13.00
2022-10-11T20:09:29.152Z,13.00
2022-10-11T20:12:35.901Z,13.00
2022-10-11T20:15:39.777Z,12.90
2022-10-11T20:18:43.847Z,12.60
2022-10-11T20:21:48.302Z,12.80
2022-10-11T20:24:52.892Z,12.80
2022-10-11T20:27:55.964Z,12.70
2022-10-11T20:30:59.594Z,12.70
2022-10-11T20:34:07.748Z,12.60
2022-10-11T20:37:10.944Z,12.60
2022-10-11T20:40:16.795Z,12.60
2022-10-11T20:43:20.207Z,12.50
2022-10-11T20:46:26.909Z,12.50
2022-10-11T20:49:30.091Z,12.30
2022-10-11T20:52:33.816Z,12.40
2022-10-11T20:55:38.485Z,12.40
2022-10-11T20:58:42.597Z,12.70
2022-10-11T21:01:45.651Z,12.30
2022-10-11T21:04:51.409Z,12.50
2022-10-11T21:07:54.509Z,12.20
2022-10-11T21:10:59.143Z,12.10
2022-10-11T21:14:05.673Z,12.10
2022-10-11T21:17:08.803Z,12.00
2022-10-11T21:20:12.178Z,12.00
2022-10-11T21:23:15.549Z,11.90
2022-10-11T21:26:20.278Z,11.90
2022-10-11T21:29:23.575Z,11.90
2022-10-11T21:32:26.727Z,11.90
2022-10-11T21:35:31.994Z,11.90
2022-10-11T21:38:35.650Z,11.90
2022-10-11T21:41:42.330Z,11.80
2022-10-11T21:44:45.595Z,11.90
2022-10-11T21:47:48.830Z,11.80
2022-10-11T21:50:54.672Z,11.80
2022-10-11T21:54:00.226Z,11.70
2022-10-11T21:57:05.186Z,11.70
2022-10-11T22:00:10.807Z,11.60
2022-10-11T22:03:13.973Z,11.60
2022-10-11T22:06:19.435Z,11.50
2022-10-11T22:09:22.519Z,11.50
2022-10-11T22:12:28.122Z,11.50
2022-10-11T22:15:35.230Z,11.40
2022-10-11T22:18:40.127Z,11.40
2022-10-11T22:21:45.447Z,11.40
2022-10-11T22:24:48.701Z,11.30
2022-10-11T22:27:53.329Z,11.30
2022-10-11T22:31:00.541Z,11.30
2022-10-11T22:34:04.027Z,11.30
2022-10-11T22:37:07.808Z,11.20
2022-10-11T22:40:11.499Z,11.20
2022-10-11T22:43:16.020Z,11.20
2022-10-11T22:46:19.285Z,11.10
2022-10-11T22:49:23.008Z,11.10
2022-10-11T22:52:26.424Z,11.00
2022-10-11T22:55:29.530Z,11.00
2022-10-11T22:58:34.048Z,11.00
2022-10-11T23:01:37.394Z,11.60
2022-10-11T23:04:40.590Z,10.90
2022-10-11T23:07:43.844Z,10.90
2022-10-11T23:10:47.073Z,10.90
2022-10-11T23:13:51.806Z,10.90
2022-10-11T23:16:54.976Z,10.90
2022-10-11T23:19:58.124Z,10.90
2022-10-11T23:23:01.306Z,11.20
2022-10-11T23:26:07.292Z,11.60
2022-10-11T23:29:11.769Z,10.80
2022-10-11T23:32:14.866Z,10.80
2022-10-11T23:35:18.245Z,10.80
2022-10-11T23:38:21.752Z,10.80
2022-10-11T23:41:28.151Z,10.80
2022-10-11T23:44:32.683Z,10.80
2022-10-11T23:47:35.945Z,10.20
2022-10-11T23:50:39.302Z,10.90
2022-10-11T23:53:42.707Z,10.90
2022-10-11T23:56:46.048Z,10.90
2022-10-11T23:59:50.630Z,10.90
